Time;durP1;ratioP1;P1;durP2;ratioP2;P2;SDS_P1;SDS_P2;PMS_P1;PMS_P2;Temp;Humidity;BMP_temperature;BMP_pressure;BME280_temperature;BME280_humidity;BME280_pressure;Samples;Min_cycle;Max_cycle;Signal;HPM_P1;HPM_P2
2021/12/20 00:01:11;;;;;;;13.07;11.02;;;5.10;99.90;;;;;;6205718;23;20186;-71
2021/12/20 00:03:43;;;;;;;14.85;12.05;;;5.10;99.90;;;;;;6209034;23;20189;-73
2021/12/20 00:06:14;;;;;;;12.82;11.40;;;5.10;99.90;;;;;;6206517;23;20499;-70
2021/12/20 00:08:45;;;;;;;13.98;12.52;;;5.00;99.90;;;;;;6207971;23;20208;-72
2021/12/20 00:11:16;;;;;;;13.60;11.32;;;4.90;99.90;;;;;;6207060;23;20485;-69
2021/12/20 00:13:49;;;;;;;14.82;11.65;;;4.90;99.90;;;;;;6210088;23;20186;-68
2021/12/20 00:16:19;;;;;;;24.20;16.40;;;4.90;99.90;;;;;;6208839;23;20186;-69
2021/12/20 00:18:52;;;;;;;25.85;15.38;;;4.90;99.90;;;;;;6207817;23;20650;-70
2021/12/20 00:21:26;;;;;;;1999.90;460.42;;;4.90;99.90;;;;;;6210720;23;20489;-70
2021/12/20 00:23:56;;;;;;;90.65;26.58;;;5.20;99.90;;;;;;6207962;23;20200;-70
2021/12/20 00:26:27;;;;;;;17.15;13.68;;;5.20;99.90;;;;;;6210741;23;20192;-69
2021/12/20 00:28:58;;;;;;;14.88;12.40;;;5.20;99.90;;;;;;6212102;23;20201;-69
2021/12/20 00:31:30;;;;;;;15.98;14.38;;;5.10;99.90;;;;;;6210496;23;20186;-70
2021/12/20 00:34:02;;;;;;;16.63;12.50;;;5.00;99.90;;;;;;6206866;23;20198;-73
2021/12/20 00:36:33;;;;;;;18.27;13.80;;;4.80;99.90;;;;;;6210571;23;20186;-71
2021/12/20 00:41:51;;;;;;;15.48;12.60;;;4.90;99.90;;;;;;6207652;23;20664;-68
2021/12/20 00:44:22;;;;;;;286.88;65.35;;;5.00;99.90;;;;;;6207284;23;20266;-69
2021/12/20 00:46:56;;;;;;;74.32;22.75;;;5.10;99.90;;;;;;6209406;23;20277;-69
2021/12/20 00:49:29;;;;;;;18.52;14.35;;;5.20;99.90;;;;;;6207987;23;20185;-68
2021/12/20 00:51:59;;;;;;;16.98;15.02;;;5.20;99.90;;;;;;6211586;23;20284;-69
2021/12/20 00:54:30;;;;;;;17.33;14.60;;;5.20;99.90;;;;;;6211771;23;20196;-69
2021/12/20 00:57:01;;;;;;;18.02;14.45;;;5.20;99.90;;;;;;6209890;23;20206;-68
2021/12/20 00:59:32;;;;;;;17.17;14.52;;;5.20;99.90;;;;;;6212231;23;20457;-71
2021/12/20 01:02:03;;;;;;;18.45;15.45;;;5.10;99.90;;;;;;6210576;23;20275;-72
2021/12/20 01:04:35;;;;;;;22.73;16.20;;;5.20;99.90;;;;;;6209014;23;20188;-68
2021/12/20 01:07:06;;;;;;;18.55;15.50;;;5.30;99.90;;;;;;6210355;23;20260;-68
2021/12/20 01:09:37;;;;;;;19.50;15.90;;;5.30;99.90;;;;;;6208039;23;20203;-71
2021/12/20 01:12:16;;;;;;;17.23;15.25;;;5.30;99.90;;;;;;6207739;23;20287;-68
2021/12/20 01:14:48;;;;;;;19.50;15.73;;;5.30;99.90;;;;;;6211600;23;20185;-72
2021/12/20 01:17:18;;;;;;;17.80;15.88;;;5.20;99.90;;;;;;6209341;23;20204;-67
2021/12/20 01:19:51;;;;;;;17.73;14.93;;;5.20;99.90;;;;;;6208158;23;20265;-68
2021/12/20 01:22:22;;;;;;;18.90;15.40;;;5.10;99.90;;;;;;6206920;23;20185;-67
2021/12/20 01:24:53;;;;;;;1980.78;417.70;;;5.30;99.90;;;;;;6209242;23;20492;-68
2021/12/20 01:27:24;;;;;;;164.80;39.58;;;5.30;99.90;;;;;;6209863;23;20257;-66
2021/12/20 01:29:55;;;;;;;22.38;17.20;;;5.50;99.90;;;;;;6202651;23;20284;-67
2021/12/20 01:32:25;;;;;;;17.48;15.32;;;5.50;99.90;;;;;;6209777;23;20193;-66
2021/12/20 01:34:58;;;;;;;21.65;15.27;;;5.50;99.90;;;;;;6208171;23;20186;-66
2021/12/20 01:37:28;;;;;;;18.48;15.15;;;5.30;99.90;;;;;;6209946;23;20212;-69
2021/12/20 01:40:02;;;;;;;22.55;15.70;;;5.20;99.90;;;;;;6206523;23;20208;-67
2021/12/20 01:42:34;;;;;;;18.23;15.25;;;5.20;99.90;;;;;;6202900;23;20296;-67
2021/12/20 01:45:07;;;;;;;16.67;12.98;;;5.20;99.90;;;;;;6208980;23;20209;-69
2021/12/20 01:47:42;;;;;;;19.10;14.40;;;5.20;99.90;;;;;;6200025;23;20178;-71
2021/12/20 01:50:20;;;;;;;18.08;15.57;;;5.20;99.90;;;;;;6207549;23;20188;-66
2021/12/20 01:52:51;;;;;;;21.15;17.00;;;5.40;99.90;;;;;;6209578;23;20189;-70
2021/12/20 01:55:23;;;;;;;15.55;13.88;;;5.40;99.90;;;;;;6208531;23;20213;-67
2021/12/20 01:57:56;;;;;;;20.08;15.60;;;5.40;99.90;;;;;;6209338;23;20208;-67
2021/12/20 02:00:29;;;;;;;17.88;14.10;;;5.40;99.90;;;;;;6206960;23;20540;-72
2021/12/20 02:03:02;;;;;;;18.90;14.65;;;5.30;99.90;;;;;;6207153;23;20240;-68
2021/12/20 02:05:49;;;;;;;18.17;15.00;;;5.20;99.90;;;;;;6215153;23;20186;-72
2021/12/20 02:08:23;;;;;;;20.77;15.57;;;5.30;99.90;;;;;;6209055;23;20198;-69
2021/12/20 02:10:55;;;;;;;217.93;46.63;;;5.40;99.90;;;;;;6206551;23;20189;-68
2021/12/20 02:13:28;;;;;;;20.65;15.73;;;5.40;99.90;;;;;;6205447;23;20186;-74
2021/12/20 02:16:00;;;;;;;19.05;15.88;;;5.50;99.90;;;;;;6205796;23;20293;-68
2021/12/20 02:18:32;;;;;;;18.20;15.32;;;5.40;99.90;;;;;;6207690;23;20205;-72
2021/12/20 02:21:06;;;;;;;17.45;15.65;;;5.40;99.90;;;;;;6210194;23;20216;-71
2021/12/20 02:23:41;;;;;;;17.85;15.98;;;5.50;99.90;;;;;;6209241;23;20221;-73
2021/12/20 02:26:16;;;;;;;20.58;17.30;;;5.50;99.90;;;;;;6210084;23;20197;-72
2021/12/20 02:28:52;;;;;;;20.10;14.50;;;5.50;99.90;;;;;;6210051;23;20182;-69
2021/12/20 02:39:49;;;;;;;458.30;233.27;;;5.50;99.90;;;;;;6206417;23;20188;-69
2021/12/20 02:42:25;;;;;;;60.05;35.85;;;5.50;99.90;;;;;;6207107;23;20182;-69
2021/12/20 02:45:09;;;;;;;18.23;12.63;;;5.60;99.90;;;;;;6210468;23;20212;-70
2021/12/20 02:47:41;;;;;;;6.55;5.95;;;5.50;99.90;;;;;;6209099;23;20307;-68
2021/12/20 02:50:13;;;;;;;6.40;5.68;;;5.50;99.90;;;;;;6206704;23;20189;-71
2021/12/20 02:52:45;;;;;;;33.33;26.55;;;5.60;99.90;;;;;;6207476;23;20215;-70
2021/12/20 02:55:23;;;;;;;13.27;11.20;;;5.60;99.90;;;;;;6211326;23;20236;-70
2021/12/20 02:57:54;;;;;;;6.28;5.75;;;5.60;99.90;;;;;;6208514;23;20206;-67
2021/12/20 03:00:25;;;;;;;5.78;4.72;;;5.50;99.90;;;;;;6208545;23;20181;-66
2021/12/20 03:02:56;;;;;;;4.50;4.10;;;5.50;99.90;;;;;;6208212;23;20261;-67
2021/12/20 03:05:27;;;;;;;4.18;3.70;;;5.60;99.90;;;;;;6207329;23;20516;-66
2021/12/20 03:08:00;;;;;;;3.80;3.03;;;5.60;99.90;;;;;;6208297;23;20213;-66
2021/12/20 03:10:31;;;;;;;3.50;3.20;;;5.60;99.90;;;;;;6204371;23;20182;-67
2021/12/20 03:13:02;;;;;;;2.33;2.13;;;5.60;99.90;;;;;;6207841;23;20190;-67
2021/12/20 03:15:33;;;;;;;2.78;2.58;;;5.50;99.90;;;;;;6207245;23;20190;-74
2021/12/20 03:18:04;;;;;;;2.90;2.55;;;5.40;99.90;;;;;;6211120;23;20633;-72
2021/12/20 03:20:35;;;;;;;2.50;2.30;;;5.40;99.90;;;;;;6206592;23;20182;-73
2021/12/20 03:23:08;;;;;;;352.48;69.30;;;5.50;99.90;;;;;;6207049;23;20617;-69
2021/12/20 03:25:38;;;;;;;2.45;2.25;;;5.60;99.90;;;;;;6209026;23;20186;-70
2021/12/20 03:28:09;;;;;;;2.05;1.85;;;5.60;99.90;;;;;;6209124;23;20182;-70
2021/12/20 03:30:40;;;;;;;2.80;2.28;;;5.50;99.90;;;;;;6203122;23;20185;-71
2021/12/20 03:33:12;;;;;;;3.13;2.83;;;5.50;99.90;;;;;;6204876;23;20200;-70
2021/12/20 03:35:43;;;;;;;1.85;1.75;;;5.50;99.90;;;;;;6208412;23;20185;-69
2021/12/20 03:38:15;;;;;;;2.40;2.20;;;5.40;99.90;;;;;;6207024;23;20181;-70
2021/12/20 03:40:46;;;;;;;2.20;2.00;;;5.40;99.90;;;;;;6205493;23;20285;-69
2021/12/20 03:43:18;;;;;;;4.25;2.30;;;5.40;99.90;;;;;;6204917;23;20181;-71
2021/12/20 03:45:51;;;;;;;2.10;1.90;;;5.40;99.90;;;;;;6205151;23;20208;-67
2021/12/20 03:48:21;;;;;;;2.25;1.77;;;5.50;99.90;;;;;;6205900;23;20497;-67
2021/12/20 03:50:53;;;;;;;2.45;2.25;;;5.50;99.90;;;;;;6207085;23;20182;-68
2021/12/20 03:53:25;;;;;;;1.90;1.77;;;5.50;99.90;;;;;;6207304;23;20516;-67
2021/12/20 03:55:56;;;;;;;1.80;1.70;;;5.50;99.90;;;;;;6206198;23;20188;-69
2021/12/20 03:58:28;;;;;;;1.30;1.20;;;5.50;99.90;;;;;;6212194;23;20259;-74
2021/12/20 04:01:00;;;;;;;1.55;1.45;;;5.40;99.90;;;;;;6206547;23;20190;-70
2021/12/20 04:03:34;;;;;;;1.42;1.33;;;5.40;99.90;;;;;;6208658;23;20236;-70
2021/12/20 04:06:06;;;;;;;1.90;1.80;;;5.40;99.90;;;;;;6211198;23;20204;-70
2021/12/20 04:08:39;;;;;;;1.67;1.30;;;5.40;99.90;;;;;;6209997;23;20197;-70
2021/12/20 04:11:10;;;;;;;2.17;1.80;;;5.40;99.90;;;;;;6208860;23;20185;-70
2021/12/20 04:13:41;;;;;;;3.65;1.27;;;5.30;99.90;;;;;;6210562;23;20185;-70
2021/12/20 04:16:12;;;;;;;1.85;1.30;;;5.30;99.90;;;;;;6210570;23;20182;-71
2021/12/20 04:18:44;;;;;;;1.40;1.30;;;5.20;99.90;;;;;;6212543;23;20197;-68
2021/12/20 04:21:14;;;;;;;1.45;1.30;;;5.30;99.90;;;;;;6211441;23;20185;-70
2021/12/20 04:23:47;;;;;;;1.20;1.10;;;5.40;99.90;;;;;;6208823;23;20182;-70
2021/12/20 04:26:20;;;;;;;1.52;1.42;;;5.30;99.90;;;;;;6202748;23;20181;-70
2021/12/20 04:28:51;;;;;;;1.25;1.15;;;5.30;99.90;;;;;;6209881;23;20178;-70
2021/12/20 04:31:22;;;;;;;1.13;1.13;;;5.20;99.90;;;;;;6211418;23;20186;-69
2021/12/20 04:33:53;;;;;;;1.00;1.00;;;5.20;99.90;;;;;;6208045;23;20177;-73
2021/12/20 04:36:24;;;;;;;1.52;1.40;;;5.20;99.90;;;;;;6211528;23;20495;-70
2021/12/20 04:38:56;;;;;;;3.20;2.90;;;5.30;99.90;;;;;;6210883;23;20216;-70
2021/12/20 04:41:28;;;;;;;1.25;1.25;;;5.20;99.90;;;;;;6210161;23;20658;-71
2021/12/20 04:43:59;;;;;;;1.67;1.58;;;5.20;99.90;;;;;;6209674;23;20188;-71
2021/12/20 04:46:29;;;;;;;1.90;1.80;;;5.20;99.90;;;;;;6209845;23;20192;-71
2021/12/20 04:49:00;;;;;;;3.05;2.22;;;5.30;99.90;;;;;;6209970;23;20201;-70
2021/12/20 04:51:32;;;;;;;6.88;6.20;;;5.20;99.90;;;;;;6212112;23;20190;-71
2021/12/20 04:54:05;;;;;;;1.83;1.73;;;5.20;99.90;;;;;;6211190;23;20468;-71
2021/12/20 04:56:36;;;;;;;15.85;7.22;;;5.20;99.90;;;;;;6211736;23;20215;-71
2021/12/20 04:59:07;;;;;;;18.13;6.50;;;5.20;99.90;;;;;;6210001;23;20202;-71
2021/12/20 05:01:38;;;;;;;4.22;3.92;;;5.30;99.90;;;;;;6211477;23;20192;-71
2021/12/20 05:04:11;;;;;;;2.05;1.95;;;5.30;99.90;;;;;;6210960;23;20677;-72
2021/12/20 05:06:43;;;;;;;8.38;7.05;;;5.30;99.90;;;;;;6207917;23;20188;-72
2021/12/20 05:09:17;;;;;;;7.72;5.10;;;5.30;99.90;;;;;;6207218;23;20177;-71
2021/12/20 05:11:51;;;;;;;3.72;2.65;;;5.30;99.90;;;;;;6209686;23;20655;-70
2021/12/20 05:14:21;;;;;;;3.10;2.80;;;5.20;99.90;;;;;;6210975;23;20188;-73
2021/12/20 05:16:52;;;;;;;1.70;1.45;;;5.20;99.90;;;;;;6210076;23;20212;-73
2021/12/20 05:19:23;;;;;;;2.60;2.35;;;5.10;99.90;;;;;;6208067;23;20283;-71
2021/12/20 05:21:56;;;;;;;0.90;0.90;;;5.10;99.90;;;;;;6207479;23;20182;-74
2021/12/20 05:24:31;;;;;;;1.27;1.27;;;5.10;99.90;;;;;;6206093;23;20186;-71
2021/12/20 05:27:04;;;;;;;1.80;1.70;;;5.00;99.90;;;;;;6209144;23;20188;-73
2021/12/20 05:29:44;;;;;;;0.60;0.60;;;5.00;99.90;;;;;;6206062;23;20252;-71
2021/12/20 05:32:15;;;;;;;1.42;1.02;;;5.00;99.90;;;;;;6207041;23;20216;-73
2021/12/20 05:34:46;;;;;;;3.97;3.60;;;5.10;99.90;;;;;;6208883;23;20524;-73
2021/12/20 05:37:17;;;;;;;4.40;4.00;;;5.10;99.90;;;;;;6207556;23;20701;-72
2021/12/20 05:39:49;;;;;;;2.80;2.60;;;5.10;99.90;;;;;;6209493;23;20209;-72
2021/12/20 05:42:20;;;;;;;0.82;0.80;;;5.10;99.90;;;;;;6200769;23;20212;-72
2021/12/20 05:44:52;;;;;;;0.98;0.88;;;5.20;99.90;;;;;;6203663;23;20190;-71
2021/12/20 05:47:23;;;;;;;1.17;1.17;;;5.10;99.90;;;;;;6209181;23;20520;-72
2021/12/20 05:49:55;;;;;;;1.30;1.20;;;5.20;99.90;;;;;;6207445;23;20327;-72
2021/12/20 05:52:28;;;;;;;1.45;1.35;;;5.20;99.90;;;;;;6207304;23;20174;-74
2021/12/20 05:55:02;;;;;;;1.52;1.42;;;5.30;99.90;;;;;;6206304;23;20241;-73
2021/12/20 05:57:36;;;;;;;0.80;0.80;;;5.30;99.90;;;;;;6212287;23;20204;-72
2021/12/20 06:00:14;;;;;;;1.48;1.02;;;5.30;99.90;;;;;;6204602;23;20201;-74
2021/12/20 06:02:46;;;;;;;0.47;0.47;;;5.20;99.90;;;;;;6211636;23;20216;-74
2021/12/20 06:05:17;;;;;;;2.33;0.75;;;5.20;99.90;;;;;;6208220;23;20212;-74
2021/12/20 06:07:48;;;;;;;2.15;1.05;;;5.20;99.90;;;;;;6209177;23;20205;-73
2021/12/20 06:10:22;;;;;;;2.40;1.25;;;5.20;99.90;;;;;;6208815;23;20185;-73
2021/12/20 06:12:52;;;;;;;0.60;0.60;;;5.20;99.90;;;;;;6207016;23;20182;-72
2021/12/20 06:15:23;;;;;;;0.60;0.60;;;5.20;99.90;;;;;;6208635;23;20469;-73
2021/12/20 06:17:54;;;;;;;1.05;1.05;;;5.20;99.90;;;;;;6205364;23;20197;-72
2021/12/20 06:20:26;;;;;;;0.55;0.55;;;5.20;99.90;;;;;;6208264;23;20201;-73
2021/12/20 06:22:57;;;;;;;3.10;2.65;;;5.30;99.90;;;;;;6207978;23;20189;-74
2021/12/20 06:25:30;;;;;;;0.80;0.70;;;5.20;99.90;;;;;;6205477;23;20261;-72
2021/12/20 06:28:01;;;;;;;0.50;0.50;;;5.30;99.90;;;;;;6211166;23;20208;-72
2021/12/20 06:30:32;;;;;;;0.75;0.70;;;5.20;99.90;;;;;;6207138;23;20182;-72
2021/12/20 06:33:03;;;;;;;1.00;0.90;;;5.20;99.90;;;;;;6210564;23;20264;-72
2021/12/20 06:35:38;;;;;;;1.15;0.70;;;5.20;99.90;;;;;;6208797;23;20536;-70
2021/12/20 06:38:11;;;;;;;0.75;0.65;;;5.20;99.90;;;;;;6208922;23;20181;-71
2021/12/20 06:40:43;;;;;;;0.70;0.70;;;5.20;99.90;;;;;;6209522;23;20212;-71
2021/12/20 06:43:14;;;;;;;0.45;0.38;;;5.20;99.90;;;;;;6208689;23;20186;-72
2021/12/20 06:45:46;;;;;;;0.40;0.32;;;5.10;99.90;;;;;;6210909;23;20265;-71
2021/12/20 06:48:16;;;;;;;0.40;0.40;;;5.20;99.90;;;;;;6207652;23;20235;-71
2021/12/20 06:50:47;;;;;;;0.50;0.30;;;5.20;99.90;;;;;;6206844;23;20192;-72
2021/12/20 06:53:18;;;;;;;0.60;0.30;;;5.30;99.90;;;;;;6208434;23;20182;-71
2021/12/20 06:55:51;;;;;;;0.30;0.28;;;5.20;99.90;;;;;;6211345;23;20241;-73
2021/12/20 06:58:23;;;;;;;0.50;0.40;;;5.20;99.90;;;;;;6206226;23;20190;-72
2021/12/20 07:00:54;;;;;;;0.30;0.30;;;5.30;99.90;;;;;;6208852;23;20202;-73
2021/12/20 07:03:25;;;;;;;0.60;0.55;;;5.30;99.90;;;;;;6205150;23;20182;-72
2021/12/20 07:05:56;;;;;;;0.50;0.30;;;5.30;99.90;;;;;;6208516;23;20518;-73
2021/12/20 07:08:27;;;;;;;0.40;0.30;;;5.30;99.90;;;;;;6208611;23;20209;-72
2021/12/20 07:11:00;;;;;;;0.30;0.25;;;5.30;99.90;;;;;;6207207;23;20212;-72
2021/12/20 07:13:31;;;;;;;0.40;0.30;;;5.30;99.90;;;;;;6206529;23;20273;-73
2021/12/20 07:16:02;;;;;;;1.25;0.30;;;5.40;99.90;;;;;;6209240;23;20615;-73
2021/12/20 07:18:33;;;;;;;1.65;0.52;;;5.40;99.90;;;;;;6209627;23;20261;-74
2021/12/20 07:21:08;;;;;;;0.30;0.25;;;5.40;99.90;;;;;;6208288;23;20233;-73
2021/12/20 07:23:39;;;;;;;0.40;0.40;;;5.40;99.90;;;;;;6206174;23;20186;-72
2021/12/20 07:26:13;;;;;;;0.50;0.40;;;5.40;99.90;;;;;;6206787;23;20191;-73
2021/12/20 07:28:45;;;;;;;0.35;0.28;;;5.40;99.90;;;;;;6208142;23;20602;-73
2021/12/20 07:31:17;;;;;;;0.40;0.20;;;5.40;99.90;;;;;;6205396;23;20174;-72
2021/12/20 07:33:48;;;;;;;0.52;0.20;;;5.40;99.90;;;;;;6207072;23;20264;-72
2021/12/20 07:36:20;;;;;;;0.47;0.43;;;5.40;99.90;;;;;;6210371;23;20188;-69
2021/12/20 07:38:52;;;;;;;0.30;0.30;;;5.40;99.90;;;;;;6207627;23;20204;-69
2021/12/20 07:41:25;;;;;;;0.40;0.38;;;5.40;99.90;;;;;;6208803;23;20201;-69
2021/12/20 07:43:56;;;;;;;0.52;0.38;;;5.40;99.90;;;;;;6207453;23;20204;-72
2021/12/20 07:46:28;;;;;;;0.47;0.47;;;5.30;99.90;;;;;;6208879;23;20182;-74
2021/12/20 07:49:00;;;;;;;0.50;0.35;;;5.30;99.90;;;;;;6209340;23;20178;-73
2021/12/20 07:51:32;;;;;;;0.40;0.30;;;5.30;99.90;;;;;;6208887;23;20178;-73
2021/12/20 07:54:03;;;;;;;0.25;0.20;;;5.30;99.90;;;;;;6205486;23;20189;-73
2021/12/20 07:56:35;;;;;;;0.30;0.30;;;5.30;99.90;;;;;;6208914;23;20236;-73
2021/12/20 07:59:08;;;;;;;0.30;0.30;;;5.30;99.90;;;;;;6206454;23;20186;-72
2021/12/20 08:01:39;;;;;;;0.40;0.30;;;5.20;99.90;;;;;;6200495;23;20229;-73
2021/12/20 08:04:10;;;;;;;0.30;0.20;;;5.20;99.90;;;;;;6208925;23;20205;-73
2021/12/20 08:06:42;;;;;;;0.30;0.20;;;5.30;99.90;;;;;;6209004;23;20185;-74
2021/12/20 08:09:14;;;;;;;0.30;0.30;;;5.20;99.90;;;;;;6208301;23;20522;-72
2021/12/20 08:11:47;;;;;;;0.47;0.40;;;5.20;99.90;;;;;;6209200;23;20213;-73
2021/12/20 08:14:17;;;;;;;0.30;0.30;;;5.20;99.90;;;;;;6207843;23;20566;-72
2021/12/20 08:16:48;;;;;;;0.30;0.20;;;5.20;99.90;;;;;;6210206;23;20220;-73
2021/12/20 08:19:19;;;;;;;0.40;0.22;;;5.10;99.90;;;;;;6206589;23;20527;-71
2021/12/20 08:21:50;;;;;;;0.50;0.38;;;5.20;99.90;;;;;;6208338;23;20256;-72
2021/12/20 08:24:21;;;;;;;0.40;0.40;;;5.10;99.90;;;;;;6209644;23;20186;-73
2021/12/20 08:26:53;;;;;;;0.35;0.20;;;5.10;99.90;;;;;;6208275;23;20205;-72
2021/12/20 08:29:24;;;;;;;0.50;0.20;;;5.20;99.90;;;;;;6207913;23;20248;-73
2021/12/20 08:31:56;;;;;;;0.40;0.30;;;5.20;99.90;;;;;;6209093;23;20240;-74
2021/12/20 08:34:26;;;;;;;0.30;0.20;;;5.20;99.90;;;;;;6205932;23;20833;-74
2021/12/20 08:36:58;;;;;;;0.30;0.30;;;5.20;99.90;;;;;;6207507;23;20182;-74
2021/12/20 08:39:29;;;;;;;0.55;0.35;;;5.10;99.90;;;;;;6204692;23;20186;-74
2021/12/20 08:42:03;;;;;;;0.30;0.30;;;5.10;99.90;;;;;;6208405;23;20282;-74
2021/12/20 08:44:35;;;;;;;0.30;0.20;;;5.10;99.90;;;;;;6210592;23;20189;-73
2021/12/20 08:47:06;;;;;;;0.30;0.28;;;5.10;99.90;;;;;;6210069;23;20673;-74
2021/12/20 08:49:37;;;;;;;0.30;0.25;;;5.20;99.90;;;;;;6204933;23;20193;-73
2021/12/20 08:52:08;;;;;;;0.30;0.30;;;5.20;99.90;;;;;;6207507;23;20247;-73
2021/12/20 08:54:39;;;;;;;0.30;0.30;;;5.20;99.90;;;;;;6211405;23;20236;-73
2021/12/20 08:57:12;;;;;;;0.30;0.25;;;5.10;99.90;;;;;;6209820;23;20209;-73
2021/12/20 08:59:43;;;;;;;0.30;0.28;;;5.10;99.90;;;;;;6209815;23;20220;-73
2021/12/20 09:02:14;;;;;;;0.40;0.20;;;5.10;99.90;;;;;;6211935;23;20344;-73
2021/12/20 09:04:45;;;;;;;0.30;0.30;;;5.10;99.90;;;;;;6208536;23;20186;-73
2021/12/20 09:07:16;;;;;;;0.38;0.20;;;5.00;99.90;;;;;;6209481;23;20248;-73
2021/12/20 09:09:48;;;;;;;0.30;0.20;;;5.00;99.90;;;;;;6208118;23;20189;-74
2021/12/20 09:12:21;;;;;;;0.30;0.28;;;5.10;99.90;;;;;;6206856;23;20182;-73
2021/12/20 09:14:52;;;;;;;0.30;0.20;;;5.10;99.90;;;;;;6211830;23;20261;-73
2021/12/20 09:17:23;;;;;;;0.77;0.20;;;5.10;99.90;;;;;;6210028;23;20634;-72
2021/12/20 09:19:54;;;;;;;0.30;0.25;;;5.00;99.90;;;;;;6208337;23;20205;-73
2021/12/20 09:22:28;;;;;;;0.38;0.30;;;5.00;99.90;;;;;;6209838;23;20248;-73
2021/12/20 09:24:59;;;;;;;0.40;0.20;;;4.90;99.90;;;;;;6211239;23;20493;-72
2021/12/20 09:27:31;;;;;;;0.40;0.40;;;4.90;99.90;;;;;;6209755;23;20214;-72
2021/12/20 09:30:02;;;;;;;0.38;0.28;;;4.90;99.90;;;;;;6209091;23;20193;-72
2021/12/20 09:32:33;;;;;;;0.30;0.20;;;4.90;99.90;;;;;;6211945;23;20181;-72
2021/12/20 09:35:04;;;;;;;0.30;0.30;;;5.00;99.90;;;;;;6208359;23;20236;-72
2021/12/20 09:37:36;;;;;;;0.40;0.40;;;5.00;99.90;;;;;;6212030;23;20197;-72
2021/12/20 09:40:11;;;;;;;0.40;0.40;;;5.00;99.90;;;;;;6207134;23;20194;-73
2021/12/20 09:42:50;;;;;;;1.70;0.30;;;4.90;99.90;;;;;;6207907;23;20198;-72
2021/12/20 09:45:22;;;;;;;0.32;0.30;;;5.00;99.90;;;;;;6211435;23;20186;-72
2021/12/20 09:47:53;;;;;;;0.30;0.30;;;4.90;99.90;;;;;;6209777;23;20196;-72
2021/12/20 09:50:27;;;;;;;0.40;0.40;;;5.00;99.90;;;;;;6207733;23;20186;-71
2021/12/20 09:53:03;;;;;;;0.30;0.22;;;5.00;99.90;;;;;;6208397;23;20297;-72
2021/12/20 09:55:35;;;;;;;0.30;0.20;;;4.90;99.90;;;;;;6210881;23;20189;-72
2021/12/20 09:58:08;;;;;;;0.30;0.20;;;5.00;99.90;;;;;;6209291;23;20218;-72
2021/12/20 10:00:40;;;;;;;1.00;0.30;;;4.90;99.90;;;;;;6209675;23;20224;-73
2021/12/20 10:03:13;;;;;;;0.30;0.30;;;5.00;99.90;;;;;;6208512;23;20228;-72
2021/12/20 10:05:44;;;;;;;0.30;0.30;;;4.90;99.90;;;;;;6209655;23;20181;-71
2021/12/20 10:08:20;;;;;;;0.30;0.20;;;5.00;99.90;;;;;;6211155;23;20205;-73
2021/12/20 10:10:51;;;;;;;0.20;0.20;;;5.00;99.90;;;;;;6205673;23;20193;-73
2021/12/20 10:13:26;;;;;;;0.20;0.20;;;4.90;99.90;;;;;;6208202;23;20181;-73
2021/12/20 10:15:58;;;;;;;0.20;0.20;;;4.80;99.90;;;;;;6209206;23;20196;-73
2021/12/20 10:18:30;;;;;;;0.90;0.20;;;4.80;99.90;;;;;;6207433;23;20259;-72
2021/12/20 10:21:03;;;;;;;0.55;0.20;;;4.70;99.90;;;;;;6211239;23;20217;-72
2021/12/20 10:23:40;;;;;;;0.30;0.30;;;4.70;99.90;;;;;;6209367;23;20244;-74
2021/12/20 10:26:15;;;;;;;0.45;0.28;;;4.70;99.90;;;;;;6211797;23;20239;-72
2021/12/20 10:28:48;;;;;;;0.20;0.20;;;4.70;99.90;;;;;;6209012;23;20185;-71
2021/12/20 10:31:21;;;;;;;0.30;0.20;;;4.60;99.90;;;;;;6208659;23;20209;-70
2021/12/20 10:33:56;;;;;;;0.30;0.20;;;4.70;99.90;;;;;;6210138;23;20182;-71
2021/12/20 10:36:28;;;;;;;0.30;0.20;;;4.70;99.90;;;;;;6209157;23;20201;-71
2021/12/20 10:39:00;;;;;;;0.30;0.30;;;4.70;99.90;;;;;;6207500;23;20260;-71
2021/12/20 10:41:35;;;;;;;0.30;0.20;;;4.70;99.90;;;;;;6207761;23;20193;-73
2021/12/20 10:44:15;;;;;;;0.40;0.20;;;4.70;99.90;;;;;;6209147;23;20239;-71
2021/12/20 10:46:49;;;;;;;0.50;0.50;;;4.70;99.90;;;;;;6211074;23;20236;-71
2021/12/20 10:49:21;;;;;;;0.40;0.28;;;4.70;99.90;;;;;;6205191;23;20186;-71
2021/12/20 10:51:53;;;;;;;0.30;0.20;;;4.60;99.90;;;;;;6210779;23;20266;-71
2021/12/20 10:54:30;;;;;;;0.30;0.20;;;4.50;99.90;;;;;;6208700;23;20186;-72
2021/12/20 10:57:03;;;;;;;0.63;0.20;;;4.60;99.90;;;;;;6212160;23;20186;-72
2021/12/20 10:59:37;;;;;;;0.20;0.20;;;4.60;99.90;;;;;;6206806;23;20186;-73
2021/12/20 11:05:02;;;;;;;1.58;0.20;;;4.70;99.90;;;;;;6203305;23;20265;-73
2021/12/20 11:10:17;;;;;;;0.30;0.20;;;4.70;99.90;;;;;;6167114;23;20189;-73
2021/12/20 11:12:48;;;;;;;0.35;0.20;;;4.70;99.90;;;;;;6208471;23;20240;-73
2021/12/20 11:15:21;;;;;;;0.68;0.22;;;4.80;99.90;;;;;;6210605;23;20258;-73
2021/12/20 11:17:52;;;;;;;0.30;0.20;;;4.80;99.90;;;;;;6209080;23;20182;-73
2021/12/20 11:20:24;;;;;;;0.30;0.20;;;4.70;99.90;;;;;;6207376;23;20182;-73
2021/12/20 11:23:04;;;;;;;0.40;0.40;;;4.70;99.90;;;;;;6206920;23;20674;-73
2021/12/20 11:25:35;;;;;;;0.60;0.40;;;4.70;99.90;;;;;;6209748;23;20224;-73
2021/12/20 11:28:06;;;;;;;0.30;0.20;;;4.70;99.90;;;;;;6211159;23;20636;-75
2021/12/20 11:30:39;;;;;;;0.50;0.35;;;4.70;99.90;;;;;;6206699;23;20185;-73
2021/12/20 11:33:10;;;;;;;0.85;0.30;;;4.60;99.90;;;;;;6205876;23;20193;-70
2021/12/20 11:35:41;;;;;;;0.50;0.30;;;4.60;99.90;;;;;;6209225;23;20185;-66
2021/12/20 11:38:12;;;;;;;0.30;0.30;;;4.50;99.90;;;;;;6208541;23;20260;-72
2021/12/20 11:40:43;;;;;;;0.40;0.30;;;4.50;99.90;;;;;;6207064;23;20261;-72
2021/12/20 11:43:14;;;;;;;0.50;0.20;;;4.60;99.90;;;;;;6208143;23;20237;-68
2021/12/20 11:45:48;;;;;;;0.95;0.38;;;4.60;99.90;;;;;;6208862;23;20209;-68
2021/12/20 11:48:23;;;;;;;0.30;0.30;;;4.60;99.90;;;;;;6206950;23;20530;-68
2021/12/20 11:50:58;;;;;;;0.45;0.40;;;4.60;99.90;;;;;;6208715;23;20196;-67
2021/12/20 11:53:36;;;;;;;0.20;0.20;;;4.60;99.90;;;;;;6207980;23;20182;-69
2021/12/20 11:56:08;;;;;;;0.20;0.20;;;4.50;99.90;;;;;;6208052;23;20329;-69
2021/12/20 11:58:46;;;;;;;0.30;0.20;;;4.60;99.90;;;;;;6206179;23;20546;-70
2021/12/20 12:01:20;;;;;;;0.30;0.25;;;4.60;99.90;;;;;;6206371;23;20185;-69
2021/12/20 12:03:55;;;;;;;0.47;0.20;;;4.60;99.90;;;;;;6205220;23;20197;-70
2021/12/20 12:06:28;;;;;;;0.30;0.20;;;4.60;99.90;;;;;;6208538;23;20363;-70
2021/12/20 12:09:00;;;;;;;0.40;0.30;;;4.60;99.90;;;;;;6209415;23;20271;-69
2021/12/20 12:11:50;;;;;;;0.40;0.20;;;4.60;99.90;;;;;;6205923;23;20199;-68
2021/12/20 12:14:35;;;;;;;0.30;0.20;;;4.60;99.90;;;;;;6207272;23;20209;-69
2021/12/20 12:17:10;;;;;;;0.30;0.20;;;4.60;99.90;;;;;;6210894;23;20213;-69
2021/12/20 12:19:52;;;;;;;0.40;0.30;;;4.50;99.90;;;;;;6210456;23;20534;-68
2021/12/20 12:22:42;;;;;;;0.40;0.30;;;4.60;99.90;;;;;;6208832;23;20942;-69
2021/12/20 12:25:36;;;;;;;0.30;0.22;;;4.60;99.90;;;;;;6208371;23;20174;-69
2021/12/20 12:28:07;;;;;;;0.55;0.30;;;4.60;99.90;;;;;;6208206;23;20231;-69
2021/12/20 12:30:40;;;;;;;0.43;0.20;;;4.60;99.90;;;;;;6208593;23;20218;-69
2021/12/20 12:33:35;;;;;;;0.30;0.20;;;4.60;99.90;;;;;;6209424;23;20245;-69
2021/12/20 12:36:22;;;;;;;0.30;0.30;;;4.50;99.90;;;;;;6210803;23;20545;-69
2021/12/20 12:38:59;;;;;;;0.50;0.50;;;4.50;99.90;;;;;;6211832;23;20186;-69
2021/12/20 12:41:32;;;;;;;0.30;0.20;;;4.50;99.90;;;;;;6210174;23;20185;-69
2021/12/20 12:44:21;;;;;;;0.43;0.32;;;4.50;99.90;;;;;;6208057;23;20221;-69
2021/12/20 12:47:08;;;;;;;0.30;0.30;;;4.50;99.90;;;;;;6212727;23;20217;-69
2021/12/20 12:49:56;;;;;;;0.43;0.32;;;4.50;99.90;;;;;;6210201;23;20268;-70
2021/12/20 12:52:39;;;;;;;0.40;0.40;;;4.50;99.90;;;;;;6209872;23;20277;-69
2021/12/20 12:55:31;;;;;;;0.88;0.30;;;4.50;99.90;;;;;;6211836;23;20261;-71
2021/12/20 12:58:23;;;;;;;0.40;0.32;;;4.30;99.90;;;;;;6212173;23;20190;-70
2021/12/20 13:01:00;;;;;;;0.50;0.40;;;4.30;99.90;;;;;;6206126;23;20217;-68
2021/12/20 13:03:32;;;;;;;0.55;0.50;;;4.20;99.90;;;;;;6209069;23;20207;-68
2021/12/20 13:06:05;;;;;;;0.30;0.30;;;4.30;99.90;;;;;;6212688;23;20185;-68
2021/12/20 13:08:36;;;;;;;0.63;0.50;;;4.20;99.90;;;;;;6209274;23;20623;-68
2021/12/20 13:11:06;;;;;;;0.30;0.22;;;4.30;99.90;;;;;;6210151;23;20229;-69
2021/12/20 13:13:42;;;;;;;0.30;0.30;;;4.40;99.90;;;;;;6209795;23;20696;-69
2021/12/20 13:16:21;;;;;;;0.88;0.40;;;4.40;99.90;;;;;;6212324;23;20220;-68
2021/12/20 13:18:58;;;;;;;0.50;0.40;;;4.50;99.90;;;;;;6206320;23;20197;-69
2021/12/20 13:21:48;;;;;;;0.50;0.35;;;4.50;99.90;;;;;;6209984;23;20186;-69
2021/12/20 13:24:19;;;;;;;0.68;0.68;;;4.50;99.90;;;;;;6207340;23;20233;-69
2021/12/20 13:26:50;;;;;;;0.45;0.45;;;4.50;99.90;;;;;;6209709;23;20224;-69
2021/12/20 13:29:21;;;;;;;0.40;0.40;;;4.50;99.90;;;;;;6209260;23;20185;-70
2021/12/20 13:31:52;;;;;;;0.50;0.43;;;4.50;99.90;;;;;;6210219;23;20220;-69
2021/12/20 13:34:23;;;;;;;0.60;0.60;;;4.50;99.90;;;;;;6208664;23;20185;-69
2021/12/20 13:36:57;;;;;;;0.30;0.30;;;4.40;99.90;;;;;;6209958;23;20257;-69
2021/12/20 13:39:28;;;;;;;0.57;0.50;;;4.40;99.90;;;;;;6209205;23;20636;-68